Terminal Aerodrome Forecast
Issued by NWS Caribou, ME

Home | Current Version | Previous Version | Text Only | Print | Product List | Glossary On
Versions: 1 2 3 4 5 6 7 8 9 10 11 12 13 14 15 16 17
586
FTUS41 KCAR 282326 AAB
TAFBGR
TAF AMD
KBGR 282326Z 2823/2924 36008KT P6SM FEW250
     FM291700 27005KT P6SM SKC=

USA.gov is the U.S. government's official web portal to all federal, state and local government web resources and services.